Time;durP1;ratioP1;P1;durP2;ratioP2;P2;SDS_P1;SDS_P2;PMS_P1;PMS_P2;Temp;Humidity;BMP_temperature;BMP_pressure;BME280_temperature;BME280_humidity;BME280_pressure;Samples;Min_cycle;Max_cycle;Signal;HPM_P1;HPM_P2
2022/09/14 00:01:49;;;;;;;;;;;;;;;16.45;61.68;100427.34;4957620;28;19936;-56
2022/09/14 00:04:18;;;;;;;;;;;;;;;16.41;61.69;100415.31;4954995;28;19933;-56
2022/09/14 00:06:44;;;;;;;;;;;;;;;16.38;61.73;100420.91;4956267;28;20064;-56
2022/09/14 00:09:18;;;;;;;;;;;;;;;16.35;61.67;100415.88;4954939;28;22471;-55
2022/09/14 00:11:43;;;;;;;;;;;;;;;16.34;61.63;100424.81;4959281;28;19981;-57
2022/09/14 00:14:09;;;;;;;;;;;;;;;16.33;61.77;100415.16;4956858;28;19934;-55
2022/09/14 00:16:35;;;;;;;;;;;;;;;16.32;61.55;100418.78;4954278;28;20106;-57
2022/09/14 00:19:05;;;;;;;;;;;;;;;16.32;61.73;100416.13;4956120;28;20433;-57
2022/09/14 00:21:31;;;;;;;;;;;;;;;16.33;61.64;100415.16;4956444;28;19926;-58
2022/09/14 00:23:57;;;;;;;;;;;;;;;16.34;61.71;100403.56;4955051;28;19941;-55
2022/09/14 00:26:23;;;;;;;;;;;;;;;16.35;61.47;100401.72;4957982;28;19926;-56
2022/09/14 00:28:52;;;;;;;;;;;;;;;16.36;61.47;100403.41;4954661;28;19932;-55
2022/09/14 00:31:18;;;;;;;;;;;;;;;16.36;61.52;100398.97;4955800;28;19930;-56
2022/09/14 00:33:46;;;;;;;;;;;;;;;16.37;61.39;100397.13;4954895;28;19965;-57
2022/09/14 00:36:15;;;;;;;;;;;;;;;16.37;61.59;100399.78;4954239;28;20017;-57
2022/09/14 00:38:41;;;;;;;;;;;;;;;16.36;61.62;100403.41;4953913;28;19931;-56
2022/09/14 00:41:08;;;;;;;;;;;;;;;16.36;61.60;100403.41;4958644;28;20458;-57
2022/09/14 00:43:50;;;;;;;;;;;;;;;16.34;61.64;100400.91;4961393;28;19941;-55
2022/09/14 00:46:15;;;;;;;;;;;;;;;16.32;61.70;100399.38;4959133;28;20014;-59
2022/09/14 00:48:40;;;;;;;;;;;;;;;16.28;61.89;100390.81;4952795;28;19938;-57
2022/09/14 00:51:06;;;;;;;;;;;;;;;16.26;61.79;100390.13;4955012;28;20311;-55
2022/09/14 00:53:31;;;;;;;;;;;;;;;16.25;61.72;100391.09;4954562;28;20313;-56
2022/09/14 00:55:56;;;;;;;;;;;;;;;16.24;61.89;100397.38;4955104;28;20139;-56
2022/09/14 00:58:22;;;;;;;;;;;;;;;16.23;61.79;100398.34;4958901;28;19926;-55
2022/09/14 01:00:47;;;;;;;;;;;;;;;16.21;61.97;100402.94;4957326;28;20321;-55
2022/09/14 01:03:12;;;;;;;;;;;;;;;16.19;61.94;100399.59;4955818;28;19976;-55
2022/09/14 01:05:53;;;;;;;;;;;;;;;16.16;62.07;100392.75;4954784;28;20020;-54
2022/09/14 01:08:20;;;;;;;;;;;;;;;16.15;62.05;100394.53;4954525;28;20151;-56
2022/09/14 01:10:49;;;;;;;;;;;;;;;16.10;62.08;100393.25;4956115;28;20301;-55
2022/09/14 01:13:14;;;;;;;;;;;;;;;16.06;62.28;100391.84;4961118;28;19929;-55
2022/09/14 01:15:39;;;;;;;;;;;;;;;16.02;62.26;100393.94;4964145;28;19918;-56
2022/09/14 01:18:20;;;;;;;;;;;;;;;15.98;62.12;100388.06;4965572;28;20566;-55
2022/09/14 01:20:51;;;;;;;;;;;;;;;15.93;62.26;100392.91;4956191;28;19945;-58
2022/09/14 01:23:28;;;;;;;;;;;;;;;15.89;62.38;100388.00;4960264;28;19988;-55
2022/09/14 01:26:06;;;;;;;;;;;;;;;15.84;62.34;100386.53;4957813;28;19940;-55
2022/09/14 01:28:31;;;;;;;;;;;;;;;15.85;62.40;100387.44;4956401;28;19922;-56
2022/09/14 01:31:00;;;;;;;;;;;;;;;15.83;62.46;100394.66;4957234;28;19977;-55
2022/09/14 01:33:32;;;;;;;;;;;;;;;15.80;62.45;100393.09;4959512;28;19940;-55
2022/09/14 01:35:59;;;;;;;;;;;;;;;15.80;62.34;100393.09;4958492;28;20145;-58
2022/09/14 01:38:27;;;;;;;;;;;;;;;15.77;62.49;100388.06;4963209;28;20285;-56
2022/09/14 01:40:54;;;;;;;;;;;;;;;15.76;62.47;100389.03;4960032;28;19932;-56
2022/09/14 01:43:23;;;;;;;;;;;;;;;15.72;62.58;100382.28;4961874;28;19922;-55
2022/09/14 01:45:51;;;;;;;;;;;;;;;15.70;62.57;100384.22;4960142;28;20008;-56
2022/09/14 01:48:20;;;;;;;;;;;;;;;15.70;62.60;100381.59;4961163;28;19934;-56
2022/09/14 01:50:46;;;;;;;;;;;;;;;15.68;62.69;100365.81;4955504;28;19926;-56
2022/09/14 01:53:14;;;;;;;;;;;;;;;15.68;62.73;100375.56;4974846;28;19926;-58
2022/09/14 01:55:43;;;;;;;;;;;;;;;15.68;62.88;100364.94;4963671;28;19945;-55
2022/09/14 01:58:12;;;;;;;;;;;;;;;15.68;62.81;100367.59;4965364;28;19917;-55
2022/09/14 02:00:41;;;;;;;;;;;;;;;15.66;62.87;100361.59;4966975;28;19929;-55
2022/09/14 02:03:11;;;;;;;;;;;;;;;15.65;62.82;100359.94;4960893;28;19933;-55
2022/09/14 02:05:41;;;;;;;;;;;;;;;15.63;62.87;100361.88;4962627;28;19922;-55
2022/09/14 02:08:07;;;;;;;;;;;;;;;15.59;63.02;100357.78;4962327;28;19997;-55
2022/09/14 02:10:33;;;;;;;;;;;;;;;15.58;62.89;100364.88;4956778;28;19939;-56
2022/09/14 02:12:59;;;;;;;;;;;;;;;15.55;63.08;100360.69;4962742;28;19931;-55
2022/09/14 02:15:27;;;;;;;;;;;;;;;15.53;63.03;100362.63;4956198;28;20131;-55
2022/09/14 02:17:53;;;;;;;;;;;;;;;15.52;63.05;100373.38;4959799;28;19954;-55
2022/09/14 02:20:31;;;;;;;;;;;;;;;15.51;62.98;100371.69;4956263;28;20441;-56
2022/09/14 02:22:56;;;;;;;;;;;;;;;15.48;62.99;100364.84;4958119;28;20046;-55
2022/09/14 02:25:22;;;;;;;;;;;;;;;15.44;63.10;100363.44;4962386;28;19973;-56
2022/09/14 02:27:47;;;;;;;;;;;;;;;15.42;63.25;100354.75;4960967;28;20027;-55
2022/09/14 02:30:13;;;;;;;;;;;;;;;15.41;63.13;100355.72;4958838;28;20483;-55
2022/09/14 02:32:50;;;;;;;;;;;;;;;15.36;63.24;100353.47;4960789;28;19922;-55
2022/09/14 02:35:25;;;;;;;;;;;;;;;15.32;63.37;100354.69;4961265;28;20161;-55
2022/09/14 02:38:09;;;;;;;;;;;;;;;15.29;63.35;100354.13;4958530;28;20046;-56
2022/09/14 02:40:36;;;;;;;;;;;;;;;15.23;63.38;100353.66;4955137;28;19929;-55
2022/09/14 02:43:20;;;;;;;;;;;;;;;15.18;63.34;100352.34;4962754;28;20009;-55
2022/09/14 02:45:45;;;;;;;;;;;;;;;15.12;63.79;100353.72;4960673;28;19960;-56
2022/09/14 02:48:29;;;;;;;;;;;;;;;15.09;63.69;100348.66;4964082;28;20017;-55
2022/09/14 02:50:59;;;;;;;;;;;;;;;15.12;63.74;100351.06;4962968;28;19925;-55
2022/09/14 02:53:33;;;;;;;;;;;;;;;15.12;63.59;100363.50;4961977;28;25167;-55
2022/09/14 02:56:01;;;;;;;;;;;;;;;15.11;63.62;100365.28;4955347;28;20045;-56
2022/09/14 02:58:33;;;;;;;;;;;;;;;15.07;63.70;100358.53;4962154;28;19933;-55
2022/09/14 03:00:59;;;;;;;;;;;;;;;15.04;63.82;100364.13;4962437;28;20289;-56
2022/09/14 03:03:25;;;;;;;;;;;;;;;15.02;63.79;100366.88;4973979;28;19929;-55
2022/09/14 03:05:50;;;;;;;;;;;;;;;15.00;63.81;100373.28;4964410;28;20349;-55
2022/09/14 03:08:15;;;;;;;;;;;;;;;14.97;63.88;100370.88;4962732;28;20367;-55
2022/09/14 03:10:42;;;;;;;;;;;;;;;14.93;63.91;100365.81;4956196;28;20087;-55
2022/09/14 03:13:07;;;;;;;;;;;;;;;14.92;64.11;100358.84;4962109;28;19930;-55
2022/09/14 03:15:32;;;;;;;;;;;;;;;14.91;64.13;100361.63;4963169;28;20288;-55
2022/09/14 03:17:58;;;;;;;;;;;;;;;14.90;64.17;100360.78;4962702;28;20040;-55
2022/09/14 03:20:26;;;;;;;;;;;;;;;14.88;64.22;100360.09;4956153;28;20390;-55
2022/09/14 03:22:51;;;;;;;;;;;;;;;14.84;64.31;100356.00;4958421;28;20589;-56
2022/09/14 03:25:18;;;;;;;;;;;;;;;14.83;64.36;100359.63;4963243;28;19958;-56
2022/09/14 03:27:47;;;;;;;;;;;;;;;14.82;64.44;100347.34;4958843;28;19922;-57
2022/09/14 03:30:12;;;;;;;;;;;;;;;14.82;64.52;100351.81;4957177;28;19922;-56
2022/09/14 03:32:37;;;;;;;;;;;;;;;14.82;64.45;100352.63;4961484;28;19960;-56
2022/09/14 03:35:03;;;;;;;;;;;;;;;14.83;64.43;100354.31;4953555;28;19936;-55
2022/09/14 03:37:28;;;;;;;;;;;;;;;14.83;64.41;100358.75;4958724;28;19929;-55
2022/09/14 03:39:53;;;;;;;;;;;;;;;14.80;64.51;100354.56;4959226;28;20495;-55
2022/09/14 03:42:19;;;;;;;;;;;;;;;14.78;64.45;100346.75;4963752;28;20013;-57
2022/09/14 03:44:45;;;;;;;;;;;;;;;14.81;64.67;100350.94;4963782;28;19984;-57
2022/09/14 03:47:10;;;;;;;;;;;;;;;14.79;64.69;100350.22;4959801;28;19937;-56
2022/09/14 03:49:35;;;;;;;;;;;;;;;14.81;64.76;100352.78;4955492;28;19926;-55
2022/09/14 03:52:01;;;;;;;;;;;;;;;14.79;64.62;100352.88;4956783;28;19922;-58
2022/09/14 03:54:26;;;;;;;;;;;;;;;14.78;64.83;100352.06;4949721;28;19961;-56
2022/09/14 03:56:52;;;;;;;;;;;;;;;14.80;64.93;100348.44;4953344;28;19977;-56
2022/09/14 03:59:18;;;;;;;;;;;;;;;14.81;64.80;100356.25;4954890;28;20337;-56
2022/09/14 04:01:44;;;;;;;;;;;;;;;14.82;64.84;100354.44;4961539;28;20406;-56
2022/09/14 04:04:09;;;;;;;;;;;;;;;14.82;64.81;100355.28;4961652;28;19958;-57
2022/09/14 04:06:35;;;;;;;;;;;;;;;14.82;65.00;100357.94;4963237;28;19969;-57
2022/09/14 04:09:00;;;;;;;;;;;;;;;14.80;64.93;100354.56;4963686;28;19940;-56
2022/09/14 04:11:27;;;;;;;;;;;;;;;14.80;64.92;100354.56;4958840;28;19929;-56
2022/09/14 04:13:52;;;;;;;;;;;;;;;14.83;64.95;100356.97;4963631;28;19922;-58
2022/09/14 04:16:21;;;;;;;;;;;;;;;14.85;64.99;100356.81;4955369;28;19973;-56
2022/09/14 04:18:47;;;;;;;;;;;;;;;14.84;65.00;100350.69;4963295;28;20374;-56
2022/09/14 04:21:13;;;;;;;;;;;;;;;14.85;65.00;100352.38;4950966;28;19980;-57
2022/09/14 04:23:39;;;;;;;;;;;;;;;14.85;65.06;100348.88;4956482;28;19926;-56
2022/09/14 04:26:11;;;;;;;;;;;;;;;14.86;65.16;100346.13;4952231;28;19926;-56
2022/09/14 04:28:36;;;;;;;;;;;;;;;14.87;65.08;100345.16;4951724;28;19934;-56
2022/09/14 04:31:02;;;;;;;;;;;;;;;14.88;65.08;100346.84;4955305;28;19929;-58
2022/09/14 04:33:32;;;;;;;;;;;;;;;14.87;64.95;100339.88;4954511;28;19926;-57
2022/09/14 04:36:05;;;;;;;;;;;;;;;14.89;65.08;100339.72;4958075;28;19933;-57
2022/09/14 04:38:31;;;;;;;;;;;;;;;14.90;65.15;100338.75;4960507;28;19922;-56
2022/09/14 04:40:57;;;;;;;;;;;;;;;14.91;65.11;100341.25;4954110;28;19999;-55
2022/09/14 04:43:23;;;;;;;;;;;;;;;14.92;65.36;100339.47;4959679;28;20020;-56
2022/09/14 04:45:48;;;;;;;;;;;;;;;14.94;65.17;100345.50;4959092;28;19981;-56
2022/09/14 04:48:14;;;;;;;;;;;;;;;14.93;65.19;100349.94;4958156;28;19977;-56
2022/09/14 04:50:39;;;;;;;;;;;;;;;14.94;65.30;100356.09;4951901;28;19949;-56
2022/09/14 04:53:04;;;;;;;;;;;;;;;14.91;65.35;100351.88;4958007;28;19918;-57
2022/09/14 04:55:30;;;;;;;;;;;;;;;14.92;65.30;100358.84;4951950;28;19955;-58
2022/09/14 04:57:55;;;;;;;;;;;;;;;14.93;65.34;100359.69;4955280;28;19925;-56
2022/09/14 05:00:20;;;;;;;;;;;;;;;14.92;65.22;100358.84;4952567;28;19926;-57
2022/09/14 05:02:46;;;;;;;;;;;;;;;14.89;65.23;100361.78;4960689;28;19930;-57
2022/09/14 05:05:11;;;;;;;;;;;;;;;14.85;65.39;100362.13;4959586;28;20428;-56
2022/09/14 05:07:37;;;;;;;;;;;;;;;14.84;65.35;100366.59;4959104;28;19934;-56
2022/09/14 05:10:02;;;;;;;;;;;;;;;14.83;65.41;100359.63;4963788;28;19937;-56
2022/09/14 05:12:28;;;;;;;;;;;;;;;14.84;65.28;100361.28;4958031;28;19926;-56
2022/09/14 05:14:53;;;;;;;;;;;;;;;14.84;65.29;100356.00;4964483;28;19929;-56
2022/09/14 05:17:19;;;;;;;;;;;;;;;14.83;65.32;100354.31;4963712;28;20394;-57
2022/09/14 05:19:44;;;;;;;;;;;;;;;14.85;65.33;100355.03;4961072;28;19946;-56
2022/09/14 05:22:09;;;;;;;;;;;;;;;14.86;65.21;100353.22;4964219;28;20052;-56
2022/09/14 05:24:35;;;;;;;;;;;;;;;14.86;65.19;100356.72;4963506;28;19941;-56
2022/09/14 05:27:00;;;;;;;;;;;;;;;14.86;65.33;100353.22;4969618;28;19933;-56
2022/09/14 05:29:25;;;;;;;;;;;;;;;14.89;65.35;100353.81;4968482;28;19937;-56
2022/09/14 05:31:50;;;;;;;;;;;;;;;14.91;65.30;100351.03;4962114;28;20364;-56
2022/09/14 05:34:16;;;;;;;;;;;;;;;14.92;65.39;100353.53;4966080;28;20032;-56
2022/09/14 05:36:42;;;;;;;;;;;;;;;14.96;65.32;100351.50;4968209;28;19945;-57
2022/09/14 05:39:08;;;;;;;;;;;;;;;15.00;65.30;100349.44;4966861;28;19922;-57
2022/09/14 05:41:33;;;;;;;;;;;;;;;15.03;65.21;100354.50;4969984;28;19933;-56
2022/09/14 05:43:58;;;;;;;;;;;;;;;15.05;65.23;100341.97;4968522;28;19965;-56
2022/09/14 05:46:24;;;;;;;;;;;;;;;15.08;65.26;100346.97;4967728;28;19918;-57
2022/09/14 05:48:50;;;;;;;;;;;;;;;15.10;65.31;100345.03;4970250;28;19930;-56
2022/09/14 05:51:20;;;;;;;;;;;;;;;15.09;65.20;100346.88;4967660;28;19926;-55
2022/09/14 05:53:55;;;;;;;;;;;;;;;15.11;65.24;100349.38;4965344;28;20008;-56
2022/09/14 05:56:22;;;;;;;;;;;;;;;15.13;65.22;100355.41;4967078;28;19964;-54
2022/09/14 05:58:47;;;;;;;;;;;;;;;15.15;65.29;100353.47;4969737;28;19940;-55
2022/09/14 06:01:17;;;;;;;;;;;;;;;15.18;65.35;100347.91;4967813;28;19930;-58
2022/09/14 06:03:43;;;;;;;;;;;;;;;15.19;65.41;100349.59;4969719;28;20302;-57
2022/09/14 06:06:09;;;;;;;;;;;;;;;15.22;65.27;100341.38;4968099;28;19933;-58
2022/09/14 06:08:34;;;;;;;;;;;;;;;15.23;65.32;100344.88;4969190;28;19922;-58
2022/09/14 06:11:07;;;;;;;;;;;;;;;15.23;65.23;100335.09;4965955;28;19922;-57
2022/09/14 06:13:33;;;;;;;;;;;;;;;15.23;65.28;100351.00;4970153;28;19922;-57
2022/09/14 06:16:09;;;;;;;;;;;;;;;15.27;65.27;100350.75;4967553;28;19930;-55
2022/09/14 06:18:35;;;;;;;;;;;;;;;15.30;65.39;100346.03;4970189;28;19980;-56
2022/09/14 06:21:00;;;;;;;;;;;;;;;15.32;65.23;100348.56;4965951;28;20385;-58
2022/09/14 06:23:27;;;;;;;;;;;;;;;15.30;65.26;100335.41;4965506;28;20461;-54
2022/09/14 06:25:56;;;;;;;;;;;;;;;15.29;65.30;100336.38;4966640;28;19922;-58
2022/09/14 06:28:22;;;;;;;;;;;;;;;15.30;65.33;100345.19;4967968;28;19933;-57
2022/09/14 06:30:48;;;;;;;;;;;;;;;15.29;65.32;100338.22;4967609;28;20409;-56
2022/09/14 06:33:13;;;;;;;;;;;;;;;15.28;65.35;100336.53;4964468;28;19922;-55
2022/09/14 06:35:40;;;;;;;;;;;;;;;15.25;65.41;100329.69;4967824;28;19929;-58
2022/09/14 06:38:06;;;;;;;;;;;;;;;15.25;65.42;100337.63;4968746;28;20554;-59
2022/09/14 06:40:31;;;;;;;;;;;;;;;15.25;65.52;100337.63;4966493;28;19927;-58
2022/09/14 06:43:01;;;;;;;;;;;;;;;15.27;65.58;100340.16;4968570;28;20398;-58
2022/09/14 06:45:27;;;;;;;;;;;;;;;15.31;65.58;100330.97;4967355;28;19926;-57
2022/09/14 06:47:52;;;;;;;;;;;;;;;15.36;65.64;100323.44;4969686;28;21358;-56
2022/09/14 06:50:17;;;;;;;;;;;;;;;15.40;65.63;100332.84;4967705;28;21383;-54
2022/09/14 06:52:43;;;;;;;;;;;;;;;15.42;65.55;100324.78;4969181;28;19936;-55
2022/09/14 06:55:08;;;;;;;;;;;;;;;15.45;65.48;100330.66;4966549;28;19922;-57
2022/09/14 06:57:33;;;;;;;;;;;;;;;15.51;65.50;100331.94;4981034;28;19922;-54
2022/09/14 06:59:59;;;;;;;;;;;;;;;15.55;65.41;100336.84;4969844;28;19922;-55
2022/09/14 07:02:24;;;;;;;;;;;;;;;15.54;65.44;100337.81;4964197;28;19937;-55
2022/09/14 07:04:49;;;;;;;;;;;;;;;15.57;65.37;100336.72;4967846;28;20403;-55
2022/09/14 07:07:15;;;;;;;;;;;;;;;15.61;65.45;100337.28;4968347;28;19965;-57
2022/09/14 07:09:40;;;;;;;;;;;;;;;15.64;65.40;100334.38;4968624;28;20428;-57
2022/09/14 07:12:06;;;;;;;;;;;;;;;15.69;65.36;100333.00;4966870;28;20048;-56
2022/09/14 07:14:31;;;;;;;;;;;;;;;15.74;65.18;100342.38;4967507;28;19926;-54
2022/09/14 07:16:56;;;;;;;;;;;;;;;15.76;65.37;100343.06;4964970;28;19949;-55
2022/09/14 07:19:21;;;;;;;;;;;;;;;15.82;65.42;100350.53;4967565;28;20044;-56
2022/09/14 07:21:48;;;;;;;;;;;;;;;15.86;65.35;100346.66;4964218;28;20458;-55
2022/09/14 07:24:14;;;;;;;;;;;;;;;15.92;65.28;100345.28;4966642;28;19926;-54
2022/09/14 07:26:41;;;;;;;;;;;;;;;15.98;65.17;100347.41;4969282;28;19952;-57
2022/09/14 07:29:07;;;;;;;;;;;;;;;16.03;65.01;100347.84;4966072;28;19938;-57
2022/09/14 07:31:38;;;;;;;;;;;;;;;16.07;64.93;100343.09;4965815;28;19932;-55
2022/09/14 07:34:04;;;;;;;;;;;;;;;16.11;64.84;100353.31;4965521;28;19922;-57
2022/09/14 07:36:30;;;;;;;;;;;;;;;16.17;64.75;100349.31;4967479;28;19922;-55
2022/09/14 07:38:55;;;;;;;;;;;;;;;16.25;64.73;100332.69;4966394;28;19922;-55
2022/09/14 07:41:22;;;;;;;;;;;;;;;16.32;64.45;100352.41;4965970;28;20889;-53
2022/09/14 07:43:47;;;;;;;;;;;;;;;16.38;64.30;100351.88;4967291;28;20378;-56
2022/09/14 07:46:13;;;;;;;;;;;;;;;16.41;64.10;100348.91;4965800;28;19926;-57
2022/09/14 07:48:38;;;;;;;;;;;;;;;16.44;64.13;100346.00;4962804;28;20401;-55
2022/09/14 07:51:09;;;;;;;;;;;;;;;16.50;63.86;100339.28;4965643;28;19961;-58
2022/09/14 07:53:35;;;;;;;;;;;;;;;16.53;63.78;100343.50;4966423;28;19922;-57
2022/09/14 07:56:00;;;;;;;;;;;;;;;16.54;63.62;100337.22;4968658;28;19937;-55
2022/09/14 07:58:27;;;;;;;;;;;;;;;16.57;63.51;100345.75;4959505;28;19926;-55
2022/09/14 08:01:00;;;;;;;;;;;;;;;16.61;63.59;100339.19;4964751;28;19945;-55
2022/09/14 08:03:25;;;;;;;;;;;;;;;16.65;63.52;100342.41;4963353;28;19918;-56
2022/09/14 08:06:05;;;;;;;;;;;;;;;16.70;63.30;100342.00;4967314;28;19977;-56
2022/09/14 08:08:31;;;;;;;;;;;;;;;16.73;63.07;100339.88;4964912;28;19981;-55
2022/09/14 08:11:07;;;;;;;;;;;;;;;16.77;62.90;100346.59;4967226;28;19995;-57
2022/09/14 08:13:33;;;;;;;;;;;;;;;16.82;62.96;100345.38;4967938;28;19937;-58
2022/09/14 08:15:59;;;;;;;;;;;;;;;16.85;62.66;100347.75;4968035;28;19965;-57
2022/09/14 08:18:25;;;;;;;;;;;;;;;16.87;62.51;100341.31;4964528;28;20354;-55
2022/09/14 08:20:50;;;;;;;;;;;;;;;16.86;62.22;100341.47;4964723;28;19926;-53
2022/09/14 08:23:15;;;;;;;;;;;;;;;16.88;62.25;100347.44;4968683;28;19925;-54
2022/09/14 08:25:41;;;;;;;;;;;;;;;16.92;62.37;100348.84;4966088;28;20350;-57
2022/09/14 08:28:06;;;;;;;;;;;;;;;16.93;62.17;100345.22;4967485;28;20021;-56
2022/09/14 08:30:32;;;;;;;;;;;;;;;16.97;61.99;100356.44;4967346;28;20631;-56
2022/09/14 08:32:57;;;;;;;;;;;;;;;16.99;62.00;100352.69;4966660;28;19926;-57
2022/09/14 08:35:22;;;;;;;;;;;;;;;16.98;61.89;100340.38;4965812;28;20020;-55
2022/09/14 08:37:48;;;;;;;;;;;;;;;17.01;61.97;100353.38;4967193;28;20033;-56
2022/09/14 08:40:13;;;;;;;;;;;;;;;17.03;61.73;100347.91;4964210;28;19922;-55
2022/09/14 08:42:39;;;;;;;;;;;;;;;17.06;61.66;100345.81;4965507;28;20021;-56
2022/09/14 08:45:06;;;;;;;;;;;;;;;17.10;61.37;100350.84;4966479;28;19922;-58
2022/09/14 08:47:35;;;;;;;;;;;;;;;17.14;61.33;100347.75;4967416;28;20283;-57
2022/09/14 08:50:09;;;;;;;;;;;;;;;17.19;61.35;100339.34;4963879;28;20658;-57
2022/09/14 08:52:36;;;;;;;;;;;;;;;17.23;60.83;100340.75;4962144;28;19953;-54
2022/09/14 08:55:14;;;;;;;;;;;;;;;17.24;61.00;100346.94;4964529;28;19937;-56
2022/09/14 08:57:57;;;;;;;;;;;;;;;17.27;60.80;100346.63;4967598;28;19918;-57
2022/09/14 09:00:24;;;;;;;;;;;;;;;17.31;60.51;100343.56;4964399;28;19928;-58
2022/09/14 09:03:08;;;;;;;;;;;;;;;17.33;60.23;100346.88;4968040;28;19953;-57
2022/09/14 09:05:38;;;;;;;;;;;;;;;17.35;59.86;100349.41;4967774;28;19918;-55
2022/09/14 09:08:18;;;;;;;;;;;;;;;17.37;60.16;100336.81;4966358;28;19932;-55
2022/09/14 09:10:45;;;;;;;;;;;;;;;17.46;59.88;100340.44;4965992;28;20271;-55
2022/09/14 09:13:14;;;;;;;;;;;;;;;17.50;59.80;100344.47;4963305;28;19925;-55
2022/09/14 09:15:40;;;;;;;;;;;;;;;17.52;59.54;100335.41;4966907;28;19937;-57
2022/09/14 09:18:07;;;;;;;;;;;;;;;17.54;59.06;100337.06;4967190;28;19918;-55
2022/09/14 09:20:35;;;;;;;;;;;;;;;17.56;59.27;100338.59;4964490;28;20012;-54
2022/09/14 09:23:14;;;;;;;;;;;;;;;17.56;59.03;100338.59;4962518;28;19958;-55
2022/09/14 09:25:39;;;;;;;;;;;;;;;17.59;59.16;100335.66;4965461;28;20032;-55
2022/09/14 09:28:09;;;;;;;;;;;;;;;17.62;58.84;100338.00;4965460;28;20438;-55
2022/09/14 09:30:35;;;;;;;;;;;;;;;17.65;58.97;100335.06;4967550;28;19980;-55
2022/09/14 09:33:00;;;;;;;;;;;;;;;17.67;59.13;100322.44;4965481;28;20450;-56
2022/09/14 09:35:25;;;;;;;;;;;;;;;17.73;58.90;100320.22;4966173;28;19933;-58
2022/09/14 09:37:51;;;;;;;;;;;;;;;17.76;58.80;100330.56;4965940;28;19930;-57
2022/09/14 09:40:29;;;;;;;;;;;;;;;17.77;58.49;100337.56;4964336;28;19922;-55
2022/09/14 09:43:11;;;;;;;;;;;;;;;17.76;58.63;100327.91;4966996;28;19925;-55
2022/09/14 09:45:55;;;;;;;;;;;;;;;17.75;58.65;100327.03;4964987;28;20425;-58
2022/09/14 09:48:25;;;;;;;;;;;;;;;17.77;58.63;100325.09;4959209;28;20041;-55
2022/09/14 09:50:58;;;;;;;;;;;;;;;17.78;58.18;100317.91;4961405;28;19926;-55
2022/09/14 09:53:23;;;;;;;;;;;;;;;17.81;58.60;100320.28;4967231;28;19930;-60
2022/09/14 09:55:49;;;;;;;;;;;;;;;17.82;58.48;100322.84;4963937;28;19963;-55
2022/09/14 09:58:32;;;;;;;;;;;;;;;17.88;58.55;100331.19;4963103;28;20402;-56
2022/09/14 10:00:59;;;;;;;;;;;;;;;17.92;58.51;100330.75;4963790;28;19961;-54
2022/09/14 10:03:27;;;;;;;;;;;;;;;17.97;58.15;100330.34;4965098;28;19980;-54
2022/09/14 10:06:01;;;;;;;;;;;;;;;18.03;58.19;100319.13;4964830;28;20339;-59
2022/09/14 10:08:26;;;;;;;;;;;;;;;18.05;57.54;100316.31;4966858;28;19945;-57
2022/09/14 10:10:52;;;;;;;;;;;;;;;18.06;57.05;100315.34;4964928;28;20370;-56
2022/09/14 10:13:24;;;;;;;;;;;;;;;18.03;56.77;100313.78;4968005;28;19926;-55
2022/09/14 10:15:49;;;;;;;;;;;;;;;18.02;56.62;100309.44;4970907;28;19922;-57
2022/09/14 10:18:16;;;;;;;;;;;;;;;18.01;56.50;100314.94;4966927;28;19926;-58
2022/09/14 10:20:50;;;;;;;;;;;;;;;18.01;56.40;100318.41;4968379;28;19933;-54
2022/09/14 10:23:18;;;;;;;;;;;;;;;18.02;56.10;100306.78;4963770;28;20013;-56
2022/09/14 10:26:07;;;;;;;;;;;;;;;18.06;55.95;100304.69;4965463;28;19944;-55
2022/09/14 10:28:32;;;;;;;;;;;;;;;18.11;55.79;100318.38;4959925;28;20014;-55
2022/09/14 10:31:00;;;;;;;;;;;;;;;18.16;55.46;100312.59;4969770;28;19935;-56
2022/09/14 10:33:26;;;;;;;;;;;;;;;18.17;55.29;100309.81;4970504;28;20026;-55
2022/09/14 10:36:18;;;;;;;;;;;;;;;18.17;55.46;100304.47;4962058;28;19926;-58
2022/09/14 10:38:46;;;;;;;;;;;;;;;18.20;55.02;100304.19;4964970;28;19927;-54
2022/09/14 10:41:12;;;;;;;;;;;;;;;18.24;54.69;100307.38;4968920;28;19941;-56
2022/09/14 10:43:57;;;;;;;;;;;;;;;18.26;54.76;100300.91;4966224;28;20302;-57
2022/09/14 10:46:28;;;;;;;;;;;;;;;18.31;54.63;100292.47;4959914;28;19922;-56
2022/09/14 10:49:02;;;;;;;;;;;;;;;18.37;54.67;100281.22;4966140;28;19929;-58
2022/09/14 10:51:46;;;;;;;;;;;;;;;18.43;54.38;100285.09;4965895;28;19964;-58
2022/09/14 10:54:30;;;;;;;;;;;;;;;18.46;54.10;100286.63;4969975;28;19926;-57
2022/09/14 10:57:14;;;;;;;;;;;;;;;18.48;54.55;100293.50;4968875;28;19929;-54
2022/09/14 10:59:50;;;;;;;;;;;;;;;18.52;53.96;100292.19;4965995;28;19968;-53
2022/09/14 11:02:24;;;;;;;;;;;;;;;18.58;53.71;100288.09;4965660;28;19933;-56
2022/09/14 11:04:52;;;;;;;;;;;;;;;18.63;53.44;100292.97;4964856;28;20447;-57
2022/09/14 11:07:27;;;;;;;;;;;;;;;18.63;53.15;100285.78;4967812;28;19929;-55
2022/09/14 11:09:52;;;;;;;;;;;;;;;18.68;53.33;100282.69;4967489;28;20542;-57
2022/09/14 11:12:41;;;;;;;;;;;;;;;18.74;53.25;100277.59;4979564;28;20538;-55
2022/09/14 11:15:17;;;;;;;;;;;;;;;18.82;53.49;100284.81;4931742;28;20305;-55
2022/09/14 11:17:59;;;;;;;;;;;;;;;18.87;53.07;100282.50;4966045;28;20004;-58
2022/09/14 11:20:27;;;;;;;;;;;;;;;18.87;53.11;100271.00;4966465;28;19928;-55
2022/09/14 11:22:59;;;;;;;;;;;;;;;18.86;52.68;100272.00;4965126;28;19976;-55
2022/09/14 11:25:43;;;;;;;;;;;;;;;18.84;52.46;100261.47;4967247;28;19965;-56
2022/09/14 11:28:16;;;;;;;;;;;;;;;18.88;52.93;100262.03;4981584;28;19969;-57
2022/09/14 11:30:45;;;;;;;;;;;;;;;18.89;52.75;100264.53;4967004;28;19926;-54
2022/09/14 11:33:40;;;;;;;;;;;;;;;18.91;52.84;100267.03;4967295;28;19926;-58
2022/09/14 11:36:18;;;;;;;;;;;;;;;18.87;52.38;100266.50;4899143;28;19934;-58
2022/09/14 11:38:48;;;;;;;;;;;;;;;18.85;52.53;100268.47;4967294;28;19925;-58
2022/09/14 11:41:21;;;;;;;;;;;;;;;18.86;52.57;100248.84;4968340;28;19918;-57
2022/09/14 11:44:02;;;;;;;;;;;;;;;18.89;52.46;100248.53;4966633;28;19926;-56
2022/09/14 11:46:31;;;;;;;;;;;;;;;18.89;52.71;100248.53;4966279;28;19922;-57
2022/09/14 11:49:08;;;;;;;;;;;;;;;18.88;52.55;100257.53;4966460;28;19930;-57
2022/09/14 11:51:52;;;;;;;;;;;;;;;18.92;52.37;100257.22;4966313;28;20275;-57
2022/09/14 11:54:18;;;;;;;;;;;;;;;18.96;52.43;100263.94;4966877;28;20046;-56
2022/09/14 11:57:00;;;;;;;;;;;;;;;18.98;52.46;100262.78;4967544;28;19926;-55
2022/09/14 11:59:40;;;;;;;;;;;;;;;19.01;52.37;100259.81;4964711;28;19919;-57
2022/09/14 12:02:24;;;;;;;;;;;;;;;19.04;52.57;100258.66;4965571;28;19925;-57
2022/09/14 12:05:04;;;;;;;;;;;;;;;19.10;52.35;100266.06;4967570;28;19984;-57
2022/09/14 12:07:42;;;;;;;;;;;;;;;19.13;52.14;100264.88;4965010;28;19934;-56
2022/09/14 12:10:16;;;;;;;;;;;;;;;19.18;51.79;100273.28;4968895;28;19984;-55
2022/09/14 12:13:17;;;;;;;;;;;;;;;19.19;51.76;100259.78;4968323;28;20382;-57
2022/09/14 12:15:43;;;;;;;;;;;;;;;19.24;51.66;100259.28;4966456;28;19918;-55
2022/09/14 12:18:09;;;;;;;;;;;;;;;19.29;51.56;100269.47;4960972;28;19930;-56
2022/09/14 12:20:41;;;;;;;;;;;;;;;19.32;51.69;100263.84;4953120;28;20008;-55
2022/09/14 12:23:15;;;;;;;;;;;;;;;19.35;51.86;100255.53;4948900;28;20556;-56
2022/09/14 12:25:52;;;;;;;;;;;;;;;19.40;51.38;100260.38;4953311;28;20401;-54
2022/09/14 12:28:27;;;;;;;;;;;;;;;19.43;51.75;100252.91;4957290;28;19954;-55
2022/09/14 12:30:52;;;;;;;;;;;;;;;19.49;51.45;100246.94;4966480;28;20332;-55
2022/09/14 12:33:32;;;;;;;;;;;;;;;19.50;51.26;100245.13;4966389;28;20428;-59
2022/09/14 12:35:58;;;;;;;;;;;;;;;19.50;51.19;100245.94;4965675;28;19976;-54
2022/09/14 12:38:29;;;;;;;;;;;;;;;19.57;51.14;100250.66;4966537;28;19969;-56
2022/09/14 12:41:09;;;;;;;;;;;;;;;19.61;50.87;100251.97;4965711;28;20918;-56
2022/09/14 12:43:34;;;;;;;;;;;;;;;19.64;50.87;100254.34;4961708;28;19926;-58
2022/09/14 12:46:09;;;;;;;;;;;;;;;19.66;50.95;100257.69;4966587;28;19949;-56